map of RIH home
Great Circle Mapper logo
RIH - Airport
Location
City:  Río Hato, Coclé, Panamá
Name:Scarlett Martinez International Airport
Old (Alt.):Río Hato International Airport
ICAO:MPSM
IATA:RIH

Details
Type:Airport (Aerodrome, Airfield)
Use:Public/Civil, International (customs port of entry)
Latitude:8°22'48"N (8.380000)
Longitude:80°07'46"W (-80.129443)
Elevation:119 ft (36 m)
Variation:3.75°W (WMM2015 magnetic declination)
-0.14° annual change
Runways:1
Longest:7874 × 148 ft (2400 × 45 m), paved

Time
Time Zone:UTC-5
Local Time:

Weather
METAR:MPSM 291400Z 06003KT 9999 SCT020 SCT100 27/24 Q1011
TAF:MPSM 290530Z 2906/3012 00000KT 9999 FEW018 SCT090 PROB30
TEMPO 2919/2923 16006KT 6000 TSRA SCT015CB BKN090
TEMPO 2923/3003 34005KT

Related Locations
Nearby:
Farthest:CCK: 12104 mi / 19479 km
West Island (Pulau Panjang) [Cocos (Keeling) Islands], CC

Find:

   beyond  
but within

Other Information
Maps:
NOTAMs:
Links:
Sources:

  
flag of Panamá
flag of Coclé
  

Sectional Chart

Flight Planning
at skyvector.com

Satellite Image

Google Maps Satellite view

 

Copyright © 2004-2016 Karl L. Swartz. All rights reserved.
The Great Circle Mapper name and logo are trademarks of the Great Circle Mapper.
All other trademarks mentioned herein belong to their respective owners.
Please see credits for attibutions and further copyright information.

  Follow gcmap on Facebook Follow gcmap on Twitter Follow gcmap on Google+ GCmap on LinkedIn

hCard Microformat

Geo Microformat